Time;durP1;ratioP1;P1;durP2;ratioP2;P2;SDS_P1;SDS_P2;PMS_P1;PMS_P2;Temp;Humidity;BMP_temperature;BMP_pressure;BME280_temperature;BME280_humidity;BME280_pressure;Samples;Min_cycle;Max_cycle;Signal;HPM_P1;HPM_P2
2023/09/26 00:01:13;;;;;;;3.80;2.15;;;18.60;67.80;;;;;;5020796;28;20026;-67
2023/09/26 00:03:40;;;;;;;2.40;2.05;;;18.60;67.90;;;;;;5023395;28;20518;-66
2023/09/26 00:06:18;;;;;;;2.53;1.88;;;18.60;67.70;;;;;;5020673;28;20091;-67
2023/09/26 00:08:44;;;;;;;2.47;2.22;;;18.60;67.70;;;;;;5005352;28;20037;-67
2023/09/26 00:11:09;;;;;;;3.47;2.30;;;18.60;67.70;;;;;;5006837;28;20029;-68
2023/09/26 00:13:35;;;;;;;2.40;2.20;;;18.60;67.60;;;;;;5020790;28;20075;-66
2023/09/26 00:16:00;;;;;;;2.08;1.80;;;18.60;67.70;;;;;;5018521;28;20022;-67
2023/09/26 00:18:26;;;;;;;2.55;2.10;;;18.60;67.70;;;;;;5021687;28;20095;-66
2023/09/26 00:20:51;;;;;;;2.78;2.50;;;18.60;67.70;;;;;;5021138;28;20035;-66
2023/09/26 00:23:17;;;;;;;3.15;2.33;;;18.60;67.70;;;;;;5016664;28;20303;-66
2023/09/26 00:25:44;;;;;;;2.50;2.25;;;18.60;67.60;;;;;;5005839;28;20300;-67
2023/09/26 00:28:10;;;;;;;3.15;2.10;;;18.60;67.80;;;;;;5022656;28;20036;-68
2023/09/26 00:30:35;;;;;;;2.60;2.20;;;18.60;67.60;;;;;;5023062;28;20030;-67
2023/09/26 00:33:01;;;;;;;1.95;1.85;;;18.60;67.60;;;;;;5021482;28;20021;-66
2023/09/26 00:35:26;;;;;;;2.13;1.90;;;18.50;67.70;;;;;;5020552;28;20087;-66
2023/09/26 00:37:52;;;;;;;2.33;2.13;;;18.50;67.60;;;;;;5022208;28;20518;-65
2023/09/26 00:40:23;;;;;;;2.53;2.33;;;18.60;67.60;;;;;;5022409;28;20119;-67
2023/09/26 00:42:50;;;;;;;3.30;2.45;;;18.60;67.50;;;;;;5020548;28;20095;-67
2023/09/26 00:45:15;;;;;;;2.70;2.00;;;18.50;67.60;;;;;;4998198;28;20042;-67
2023/09/26 00:47:42;;;;;;;1.65;1.55;;;18.60;67.80;;;;;;5016817;28;20025;-66
2023/09/26 00:50:12;;;;;;;2.30;1.98;;;18.50;67.50;;;;;;5003679;28;20373;-66
2023/09/26 00:52:40;;;;;;;2.33;2.10;;;18.50;67.50;;;;;;5017595;28;20048;-67
2023/09/26 00:55:07;;;;;;;2.83;2.50;;;18.50;67.60;;;;;;5021002;28;20045;-66
2023/09/26 00:57:35;;;;;;;2.72;2.25;;;18.50;67.60;;;;;;5022789;28;20033;-67
2023/09/26 01:00:02;;;;;;;2.60;2.22;;;18.50;67.60;;;;;;5022915;28;20542;-66
2023/09/26 01:02:28;;;;;;;2.42;2.20;;;18.50;67.50;;;;;;5022845;28;20072;-67
2023/09/26 01:04:54;;;;;;;2.25;2.05;;;18.50;67.60;;;;;;5024113;28;20041;-66
2023/09/26 01:07:21;;;;;;;2.38;2.15;;;18.50;67.50;;;;;;5022876;28;20030;-67
2023/09/26 01:09:47;;;;;;;2.97;2.15;;;18.50;67.50;;;;;;5019873;28;20038;-66
2023/09/26 01:12:13;;;;;;;2.38;2.17;;;18.50;67.50;;;;;;5020232;28;20037;-67
2023/09/26 01:14:39;;;;;;;3.28;2.20;;;18.50;67.40;;;;;;5017849;28;20360;-66
2023/09/26 01:17:04;;;;;;;2.90;2.47;;;18.50;67.60;;;;;;5017293;28;20053;-66
2023/09/26 01:19:30;;;;;;;2.50;2.30;;;18.50;67.50;;;;;;5021606;28;20311;-65
2023/09/26 01:21:55;;;;;;;2.85;2.15;;;18.50;67.50;;;;;;5015798;28;20025;-64
2023/09/26 01:24:21;;;;;;;3.65;2.35;;;18.50;67.50;;;;;;5020231;28;20519;-66
2023/09/26 01:26:47;;;;;;;3.60;2.25;;;18.50;67.60;;;;;;5025244;28;20080;-66
2023/09/26 01:29:12;;;;;;;2.20;2.00;;;18.50;67.50;;;;;;5021330;28;20033;-66
2023/09/26 01:31:38;;;;;;;2.28;2.08;;;18.50;67.60;;;;;;5021258;28;20399;-65
2023/09/26 01:34:04;;;;;;;2.55;2.35;;;18.50;67.60;;;;;;5021596;28;20032;-66
2023/09/26 01:36:30;;;;;;;3.08;2.50;;;18.50;67.50;;;;;;5019943;28;20037;-66
2023/09/26 01:38:56;;;;;;;3.55;2.65;;;18.50;67.60;;;;;;5023098;28;20044;-66
2023/09/26 01:41:25;;;;;;;3.22;2.50;;;18.50;67.50;;;;;;4992385;28;20496;-66
2023/09/26 01:43:51;;;;;;;2.40;2.20;;;18.50;67.60;;;;;;5018261;28;20084;-67
2023/09/26 01:46:19;;;;;;;2.67;2.33;;;18.50;67.60;;;;;;5015666;28;20033;-67
2023/09/26 01:48:45;;;;;;;2.63;2.30;;;18.50;67.60;;;;;;5001755;28;20440;-66
2023/09/26 01:51:10;;;;;;;3.08;2.78;;;18.50;67.80;;;;;;5006342;28;20057;-66
2023/09/26 01:53:36;;;;;;;2.60;2.00;;;18.40;67.70;;;;;;5020899;28;20561;-64
2023/09/26 01:56:02;;;;;;;3.75;2.22;;;18.50;67.80;;;;;;5025323;28;20064;-67
2023/09/26 01:58:27;;;;;;;2.30;2.10;;;18.40;67.60;;;;;;5021322;28;20041;-66
2023/09/26 02:00:53;;;;;;;2.45;2.25;;;18.40;67.50;;;;;;5023899;28;20038;-66
2023/09/26 02:03:19;;;;;;;3.05;2.20;;;18.40;67.70;;;;;;5000890;28;20527;-66
2023/09/26 02:05:45;;;;;;;2.38;2.17;;;18.40;67.50;;;;;;5020223;28;20033;-66
2023/09/26 02:08:11;;;;;;;2.55;2.35;;;18.50;67.70;;;;;;5021746;28;20034;-66
2023/09/26 02:10:37;;;;;;;2.45;2.20;;;18.40;67.70;;;;;;5019959;28;20495;-67
2023/09/26 02:13:02;;;;;;;3.15;2.35;;;18.50;67.70;;;;;;5018986;28;20088;-66
2023/09/26 02:15:28;;;;;;;2.85;2.22;;;18.40;67.70;;;;;;5018547;28;20025;-66
2023/09/26 02:17:54;;;;;;;2.58;2.28;;;18.40;67.60;;;;;;5022018;28;20571;-66
2023/09/26 02:20:20;;;;;;;2.90;2.58;;;18.40;67.70;;;;;;5023679;28;20076;-66
2023/09/26 02:22:50;;;;;;;2.22;2.03;;;18.40;67.70;;;;;;5020159;28;20033;-66
2023/09/26 02:25:20;;;;;;;4.00;2.28;;;18.40;67.70;;;;;;5016395;28;20041;-66
2023/09/26 02:27:46;;;;;;;3.63;2.30;;;18.40;67.80;;;;;;5023248;28;20026;-66
2023/09/26 02:30:20;;;;;;;3.10;2.40;;;18.40;67.70;;;;;;5021063;28;20033;-66
2023/09/26 02:32:46;;;;;;;2.60;2.40;;;18.40;67.60;;;;;;5021601;28;20046;-66
2023/09/26 02:35:13;;;;;;;2.17;1.98;;;18.40;67.70;;;;;;5020872;28;20518;-66
2023/09/26 02:37:39;;;;;;;2.65;2.45;;;18.40;67.70;;;;;;5020812;28;20037;-65
2023/09/26 02:40:07;;;;;;;12.57;2.45;;;18.40;67.60;;;;;;5018718;28;20045;-66
2023/09/26 02:42:33;;;;;;;3.30;2.35;;;18.40;67.50;;;;;;5016937;28;20447;-66
2023/09/26 02:44:59;;;;;;;2.20;2.00;;;18.40;67.70;;;;;;5019599;28;20056;-67
2023/09/26 02:47:25;;;;;;;2.28;1.98;;;18.40;67.80;;;;;;4999551;28;20357;-66
2023/09/26 02:49:50;;;;;;;2.92;2.47;;;18.40;67.70;;;;;;5014837;28;20408;-64
2023/09/26 02:52:16;;;;;;;2.45;2.20;;;18.40;67.60;;;;;;5012873;28;20030;-66
2023/09/26 02:54:42;;;;;;;3.13;2.35;;;18.40;67.50;;;;;;5022318;28;20156;-67
2023/09/26 02:57:07;;;;;;;2.38;2.17;;;18.40;67.60;;;;;;5002864;28;20037;-65
2023/09/26 02:59:33;;;;;;;2.63;2.35;;;18.40;67.50;;;;;;5001832;28;20071;-66
2023/09/26 03:01:58;;;;;;;3.25;2.45;;;18.40;68.30;;;;;;5017409;28;20042;-65
2023/09/26 03:04:24;;;;;;;3.40;2.20;;;18.40;67.70;;;;;;5000344;28;20034;-66
2023/09/26 03:06:49;;;;;;;3.05;2.40;;;18.30;67.50;;;;;;5017736;28;20029;-66
2023/09/26 03:09:15;;;;;;;4.05;2.40;;;18.30;67.60;;;;;;5015213;28;20083;-67
2023/09/26 03:11:43;;;;;;;3.13;2.22;;;18.30;67.50;;;;;;5014893;28;20508;-66
2023/09/26 03:14:09;;;;;;;3.95;2.15;;;18.30;67.50;;;;;;5019783;28;20378;-65
2023/09/26 03:16:34;;;;;;;2.50;2.30;;;18.30;67.80;;;;;;5016165;28;20041;-66
2023/09/26 03:19:00;;;;;;;2.33;2.13;;;18.30;67.50;;;;;;5019800;28;20029;-66
2023/09/26 03:21:25;;;;;;;2.60;2.28;;;18.30;67.60;;;;;;5021810;28;20029;-67
2023/09/26 03:23:51;;;;;;;2.20;2.00;;;18.30;67.70;;;;;;5009647;28;20108;-67
2023/09/26 03:26:17;;;;;;;4.95;2.50;;;18.30;67.50;;;;;;5018991;28;20061;-67
2023/09/26 03:28:42;;;;;;;3.15;2.40;;;18.30;67.40;;;;;;5019867;28;20040;-65
2023/09/26 03:31:11;;;;;;;2.80;2.20;;;18.30;67.50;;;;;;5021165;28;20029;-66
2023/09/26 03:33:38;;;;;;;2.65;2.45;;;18.30;67.50;;;;;;5003096;28;20458;-65
2023/09/26 03:36:04;;;;;;;2.78;2.45;;;18.30;67.60;;;;;;5018243;28;20030;-65
2023/09/26 03:38:30;;;;;;;2.42;2.22;;;18.30;67.40;;;;;;5013519;28;20030;-63
2023/09/26 03:41:05;;;;;;;3.40;2.13;;;18.30;67.20;;;;;;5017913;28;20773;-66
2023/09/26 03:43:31;;;;;;;2.38;2.17;;;18.30;67.60;;;;;;5003799;28;20063;-66
2023/09/26 03:46:04;;;;;;;2.38;2.17;;;18.30;67.50;;;;;;5020135;28;20483;-67
2023/09/26 03:48:30;;;;;;;2.17;2.03;;;18.30;67.60;;;;;;5013740;28;20855;-66
2023/09/26 03:51:12;;;;;;;2.72;2.53;;;18.30;67.50;;;;;;5015955;28;20030;-66
2023/09/26 03:53:39;;;;;;;2.55;2.35;;;18.30;67.40;;;;;;5016264;28;20026;-64
2023/09/26 03:56:05;;;;;;;2.45;2.17;;;18.30;67.60;;;;;;5016700;28;20120;-66
2023/09/26 03:58:32;;;;;;;2.42;2.13;;;18.30;67.70;;;;;;5019622;28;20042;-65
2023/09/26 04:01:15;;;;;;;2.67;2.47;;;18.30;67.10;;;;;;5018223;28;20025;-64
2023/09/26 04:03:48;;;;;;;3.38;1.98;;;18.30;67.20;;;;;;5018538;28;20045;-66
2023/09/26 04:06:15;;;;;;;2.60;2.28;;;18.30;67.40;;;;;;5015001;28;20080;-68
2023/09/26 04:08:40;;;;;;;4.68;2.10;;;18.30;67.50;;;;;;5017805;28;20033;-68
2023/09/26 04:11:11;;;;;;;3.40;2.30;;;18.30;67.60;;;;;;5018423;28;20488;-68
2023/09/26 04:13:37;;;;;;;3.90;2.50;;;18.30;67.60;;;;;;5015484;28;20113;-67
2023/09/26 04:16:05;;;;;;;4.35;2.15;;;18.20;67.50;;;;;;5008546;28;20120;-68
2023/09/26 04:18:31;;;;;;;3.45;2.08;;;18.30;67.40;;;;;;5014834;28;20649;-67
2023/09/26 04:21:02;;;;;;;4.60;2.65;;;18.30;68.10;;;;;;5019459;28;20057;-68
2023/09/26 04:23:27;;;;;;;5.03;2.42;;;18.30;67.60;;;;;;5020007;28;20034;-69
2023/09/26 04:25:53;;;;;;;2.20;1.85;;;18.20;67.50;;;;;;5017720;28;20038;-67
2023/09/26 04:28:19;;;;;;;2.88;2.05;;;18.30;67.70;;;;;;5021292;28;20062;-68
2023/09/26 04:30:44;;;;;;;3.13;2.40;;;18.20;67.60;;;;;;5000490;28;20308;-68
2023/09/26 04:33:10;;;;;;;2.55;2.00;;;18.20;67.50;;;;;;5018435;28;20448;-67
2023/09/26 04:35:36;;;;;;;4.22;2.17;;;18.20;67.50;;;;;;5004998;28;20036;-68
2023/09/26 04:38:03;;;;;;;2.50;2.03;;;18.20;67.40;;;;;;5019338;28;20034;-67
2023/09/26 04:40:28;;;;;;;3.47;2.28;;;18.20;67.60;;;;;;5015480;28;20033;-67
2023/09/26 04:42:58;;;;;;;3.75;3.15;;;18.20;67.70;;;;;;5002850;28;20037;-67
2023/09/26 04:45:24;;;;;;;6.57;2.78;;;18.20;68.80;;;;;;5019984;28;20048;-67
2023/09/26 04:47:49;;;;;;;11.27;2.90;;;18.30;69.30;;;;;;5021606;28;20037;-67
2023/09/26 04:50:15;;;;;;;9.57;2.78;;;18.30;69.00;;;;;;5021989;28;20091;-66
2023/09/26 04:52:40;;;;;;;6.15;2.83;;;18.40;69.40;;;;;;5022864;28;20045;-67
2023/09/26 04:55:06;;;;;;;3.70;2.42;;;18.30;69.00;;;;;;5022042;28;20316;-66
2023/09/26 04:57:31;;;;;;;5.95;2.95;;;18.30;68.90;;;;;;5023895;28;20045;-66
2023/09/26 04:59:57;;;;;;;4.82;2.65;;;18.40;69.30;;;;;;5020505;28;20030;-68
2023/09/26 05:02:22;;;;;;;5.75;2.80;;;18.40;69.20;;;;;;5021477;28;20041;-68
2023/09/26 05:04:48;;;;;;;4.50;2.72;;;18.30;68.80;;;;;;5016988;28;20049;-64
2023/09/26 05:07:14;;;;;;;7.75;2.78;;;18.30;68.80;;;;;;5021171;28;20096;-62
2023/09/26 05:09:40;;;;;;;5.68;2.08;;;18.30;68.90;;;;;;5000089;28;20045;-66
2023/09/26 05:12:06;;;;;;;5.97;2.70;;;18.30;68.70;;;;;;5018898;28;20033;-66
2023/09/26 05:14:32;;;;;;;3.97;2.25;;;18.30;69.30;;;;;;5022923;28;20037;-66
2023/09/26 05:16:57;;;;;;;7.38;2.92;;;18.30;68.40;;;;;;5006681;28;20500;-67
2023/09/26 05:19:23;;;;;;;6.22;2.42;;;18.30;68.20;;;;;;5024458;28;20047;-65
2023/09/26 05:21:48;;;;;;;2.92;2.63;;;18.30;68.20;;;;;;5019351;28;20053;-66
2023/09/26 05:24:14;;;;;;;4.85;2.28;;;18.30;68.50;;;;;;5002928;28;20030;-66
2023/09/26 05:26:39;;;;;;;4.95;2.35;;;18.30;68.20;;;;;;5021217;28;20041;-67
2023/09/26 05:29:05;;;;;;;4.30;2.60;;;18.30;68.10;;;;;;5020001;28;20028;-65
2023/09/26 05:31:31;;;;;;;6.22;2.13;;;18.30;68.20;;;;;;5001722;28;20520;-64
2023/09/26 05:33:58;;;;;;;4.07;2.35;;;18.30;68.10;;;;;;5020070;28;20052;-66
2023/09/26 05:36:23;;;;;;;5.50;3.20;;;18.30;68.10;;;;;;5017928;28;20041;-66
2023/09/26 05:38:49;;;;;;;2.92;2.33;;;18.30;68.00;;;;;;5018224;28;20042;-66
2023/09/26 05:41:14;;;;;;;3.42;2.70;;;18.30;68.00;;;;;;5006599;28;20033;-69
2023/09/26 05:43:40;;;;;;;5.07;2.60;;;18.30;68.10;;;;;;5018424;28;20037;-67
2023/09/26 05:46:05;;;;;;;3.90;2.60;;;18.30;68.10;;;;;;5022494;28;20353;-66
2023/09/26 05:48:31;;;;;;;3.60;2.47;;;18.30;68.10;;;;;;5021495;28;20038;-66
2023/09/26 05:51:02;;;;;;;8.23;2.72;;;18.30;68.00;;;;;;5021747;28;20412;-66
2023/09/26 05:53:28;;;;;;;5.60;2.53;;;18.30;68.00;;;;;;5002596;28;20037;-65
2023/09/26 05:55:53;;;;;;;4.10;2.30;;;18.30;67.90;;;;;;5019583;28;20028;-66
2023/09/26 05:58:19;;;;;;;3.88;2.60;;;18.30;67.90;;;;;;5016762;28;20043;-67
2023/09/26 06:00:48;;;;;;;3.47;2.53;;;18.30;67.80;;;;;;5012617;28;20033;-64
2023/09/26 06:03:14;;;;;;;6.78;2.47;;;18.30;68.00;;;;;;5015601;28;20049;-67
2023/09/26 06:05:40;;;;;;;2.53;2.33;;;18.30;68.00;;;;;;5015941;28;20117;-66
2023/09/26 06:08:06;;;;;;;3.42;2.38;;;18.30;67.90;;;;;;5020483;28;20048;-67
2023/09/26 06:10:31;;;;;;;3.03;2.50;;;18.40;67.90;;;;;;4999270;28;20516;-66
2023/09/26 06:12:57;;;;;;;2.50;2.10;;;18.30;67.90;;;;;;5015791;28;20036;-63
2023/09/26 06:15:23;;;;;;;8.18;2.75;;;18.40;67.90;;;;;;5000218;28;20036;-67
2023/09/26 06:17:48;;;;;;;2.65;2.45;;;18.40;68.10;;;;;;5021575;28;20025;-67
2023/09/26 06:20:14;;;;;;;6.63;2.45;;;18.40;67.80;;;;;;5021184;28;20084;-66
2023/09/26 06:22:40;;;;;;;2.88;2.28;;;18.40;68.00;;;;;;5000303;28;20033;-67
2023/09/26 06:25:06;;;;;;;3.22;2.60;;;18.40;68.00;;;;;;4993643;28;20029;-67
2023/09/26 06:27:37;;;;;;;2.70;2.00;;;18.40;68.00;;;;;;5017033;28;20038;-67
2023/09/26 06:30:04;;;;;;;4.95;2.45;;;18.40;68.10;;;;;;5016321;28;20114;-67
2023/09/26 06:32:30;;;;;;;2.65;2.17;;;18.50;68.20;;;;;;5017775;28;20069;-64
2023/09/26 06:34:59;;;;;;;3.95;2.22;;;18.50;68.10;;;;;;5020014;28;20030;-65
2023/09/26 06:37:25;;;;;;;4.43;2.50;;;18.50;67.90;;;;;;5017639;28;20228;-66
2023/09/26 06:39:50;;;;;;;3.45;2.30;;;18.50;67.90;;;;;;5019646;28;20287;-66
2023/09/26 06:42:16;;;;;;;4.85;2.50;;;18.60;68.00;;;;;;5020252;28;20089;-66
2023/09/26 06:44:41;;;;;;;4.25;2.92;;;18.60;68.10;;;;;;5021126;28;20615;-66
2023/09/26 06:47:07;;;;;;;4.47;2.65;;;18.60;68.10;;;;;;5020417;28;20068;-67
2023/09/26 06:49:34;;;;;;;5.90;3.28;;;18.70;68.10;;;;;;5019159;28;20034;-67
2023/09/26 06:52:00;;;;;;;5.38;4.65;;;18.70;68.20;;;;;;5002061;28;20102;-68
2023/09/26 06:54:25;;;;;;;4.40;2.15;;;18.70;68.50;;;;;;5019918;28;20038;-66
2023/09/26 06:56:51;;;;;;;4.13;3.28;;;18.60;68.40;;;;;;5016319;28;20062;-67
2023/09/26 06:59:17;;;;;;;6.07;3.83;;;18.70;68.50;;;;;;4996081;28;20029;-67
2023/09/26 07:01:43;;;;;;;5.57;3.95;;;18.70;68.70;;;;;;5020654;28;20037;-66
2023/09/26 07:04:14;;;;;;;3.45;2.78;;;18.60;68.60;;;;;;5020137;28;20032;-67
2023/09/26 07:06:40;;;;;;;7.30;3.90;;;18.70;68.30;;;;;;4999009;28;20060;-67
2023/09/26 07:09:07;;;;;;;4.10;3.70;;;18.70;68.50;;;;;;5014051;28;20148;-67
2023/09/26 07:11:32;;;;;;;5.00;3.95;;;18.70;68.60;;;;;;5017941;28;20060;-67
2023/09/26 07:13:58;;;;;;;10.82;5.60;;;18.70;69.00;;;;;;4981722;28;20448;-67
2023/09/26 07:16:24;;;;;;;10.75;6.45;;;18.70;69.20;;;;;;5010656;28;20037;-67
2023/09/26 07:18:50;;;;;;;10.35;6.22;;;18.80;70.00;;;;;;5020113;28;20041;-66
2023/09/26 07:21:16;;;;;;;8.48;6.28;;;18.70;70.60;;;;;;5015901;28;20076;-64
2023/09/26 07:23:41;;;;;;;6.90;6.20;;;18.70;70.30;;;;;;5004516;28;20033;-67
2023/09/26 07:26:12;;;;;;;9.32;7.05;;;18.70;70.30;;;;;;5013105;28;20033;-67
2023/09/26 07:28:38;;;;;;;9.52;7.47;;;18.70;71.30;;;;;;4998910;28;20037;-67
2023/09/26 07:31:04;;;;;;;12.13;7.22;;;18.70;70.60;;;;;;5013919;28;20033;-67
2023/09/26 07:33:30;;;;;;;9.32;6.95;;;18.60;71.00;;;;;;5013508;28;20142;-66
2023/09/26 07:35:56;;;;;;;9.00;6.95;;;18.60;70.30;;;;;;5018400;28;20098;-66
2023/09/26 07:38:21;;;;;;;8.75;5.13;;;18.60;71.00;;;;;;5000547;28;20080;-66
2023/09/26 07:40:47;;;;;;;6.82;5.05;;;18.60;70.30;;;;;;4999101;28;20095;-65
2023/09/26 07:43:13;;;;;;;6.20;5.45;;;18.60;70.40;;;;;;5019881;28;20093;-67
2023/09/26 07:45:39;;;;;;;13.15;5.95;;;18.70;70.50;;;;;;4998454;28;20201;-66
2023/09/26 07:48:05;;;;;;;7.60;5.30;;;18.60;70.50;;;;;;5000720;28;20034;-67
2023/09/26 07:50:31;;;;;;;7.20;5.72;;;18.70;70.50;;;;;;5018294;28;20034;-66
2023/09/26 07:52:56;;;;;;;8.27;5.18;;;18.70;70.60;;;;;;5018410;28;20025;-64
2023/09/26 07:55:22;;;;;;;5.50;4.85;;;18.70;70.00;;;;;;5013498;28;20038;-66
2023/09/26 07:57:48;;;;;;;5.80;4.78;;;18.70;70.00;;;;;;4998304;28;20030;-66
2023/09/26 08:00:14;;;;;;;7.85;5.72;;;18.70;69.80;;;;;;5016524;28;20060;-64
2023/09/26 08:02:41;;;;;;;6.50;5.43;;;18.70;70.30;;;;;;4995896;28;20049;-66
2023/09/26 08:05:07;;;;;;;9.27;7.55;;;18.70;69.90;;;;;;5014363;28;20063;-66
2023/09/26 08:07:33;;;;;;;9.48;6.65;;;18.80;71.60;;;;;;5016419;28;20033;-65
2023/09/26 08:10:00;;;;;;;7.60;6.35;;;18.70;71.00;;;;;;5016817;28;20148;-64
2023/09/26 08:12:27;;;;;;;7.97;5.65;;;18.70;71.00;;;;;;5018699;28;20045;-67
2023/09/26 08:14:56;;;;;;;7.43;6.50;;;18.70;70.40;;;;;;5016528;28;20120;-67
2023/09/26 08:17:22;;;;;;;6.57;5.25;;;18.70;70.60;;;;;;5017446;28;20460;-67
2023/09/26 08:19:48;;;;;;;9.25;6.07;;;18.70;70.80;;;;;;5020066;28;20525;-68
2023/09/26 08:22:13;;;;;;;9.02;6.60;;;18.70;70.30;;;;;;5019052;28;20112;-66
2023/09/26 08:24:39;;;;;;;7.43;6.38;;;18.70;70.80;;;;;;5020218;28;20025;-65
2023/09/26 08:27:05;;;;;;;11.02;7.63;;;18.70;70.80;;;;;;5016347;28;20065;-67
2023/09/26 08:29:31;;;;;;;7.60;5.60;;;18.70;71.50;;;;;;5018848;28;20149;-65
2023/09/26 08:31:57;;;;;;;11.25;7.43;;;18.70;70.80;;;;;;5016557;28;20494;-67
2023/09/26 08:34:23;;;;;;;9.02;6.13;;;18.70;71.70;;;;;;5025699;28;20105;-66
2023/09/26 08:36:49;;;;;;;11.43;7.72;;;18.80;71.90;;;;;;5022934;28;20044;-64
2023/09/26 08:39:14;;;;;;;9.25;6.97;;;18.80;71.00;;;;;;5011840;28;20033;-66
2023/09/26 08:41:43;;;;;;;10.38;7.25;;;18.80;70.60;;;;;;5022481;28;20041;-67
2023/09/26 08:44:09;;;;;;;8.80;7.13;;;18.80;71.30;;;;;;5018743;28;20447;-67
2023/09/26 08:46:37;;;;;;;8.13;5.63;;;18.80;70.80;;;;;;5018863;28;20051;-66
2023/09/26 08:49:04;;;;;;;10.18;6.47;;;18.80;70.60;;;;;;5023492;28;20447;-67
2023/09/26 08:51:30;;;;;;;10.30;7.05;;;18.80;70.90;;;;;;5006346;28;20033;-67
2023/09/26 08:53:55;;;;;;;11.40;7.50;;;18.80;71.30;;;;;;5017703;28;20085;-67
2023/09/26 08:56:21;;;;;;;8.07;6.50;;;18.80;71.20;;;;;;5017478;28;20080;-66
2023/09/26 08:58:49;;;;;;;9.25;7.43;;;18.80;71.00;;;;;;5024575;28;20475;-67
2023/09/26 09:01:16;;;;;;;7.47;5.53;;;18.80;71.00;;;;;;5019474;28;20038;-66
2023/09/26 09:03:42;;;;;;;6.85;6.03;;;18.80;70.60;;;;;;5020616;28;20057;-65
2023/09/26 09:06:08;;;;;;;9.77;7.32;;;18.80;70.40;;;;;;5022979;28;20064;-67
2023/09/26 09:08:34;;;;;;;8.73;7.00;;;18.80;70.60;;;;;;5024054;28;20545;-63
2023/09/26 09:10:59;;;;;;;8.65;6.50;;;18.80;70.00;;;;;;5020839;28;20672;-67
2023/09/26 09:13:27;;;;;;;5.88;5.22;;;18.90;70.10;;;;;;5023544;28;20041;-68
2023/09/26 09:16:08;;;;;;;9.32;7.15;;;18.80;70.00;;;;;;5021589;28;20052;-64
2023/09/26 09:18:34;;;;;;;11.73;8.27;;;18.80;69.90;;;;;;5023838;28;20034;-68
2023/09/26 09:21:00;;;;;;;8.85;7.18;;;18.80;71.10;;;;;;5024577;28;20416;-67
2023/09/26 09:23:25;;;;;;;7.90;6.75;;;18.80;70.50;;;;;;5018659;28;20052;-67
2023/09/26 09:25:51;;;;;;;9.20;6.57;;;18.90;70.50;;;;;;5018685;28;20075;-68
2023/09/26 09:28:21;;;;;;;6.78;6.07;;;18.80;70.20;;;;;;5018173;28;20483;-68
2023/09/26 09:30:48;;;;;;;7.93;6.50;;;18.80;71.10;;;;;;5019623;28;20033;-67
2023/09/26 09:33:15;;;;;;;8.23;6.10;;;18.80;70.10;;;;;;5018884;28;20108;-67
2023/09/26 09:35:41;;;;;;;10.00;7.82;;;18.80;70.60;;;;;;4999916;28;20112;-70
2023/09/26 09:38:12;;;;;;;10.60;6.97;;;18.80;70.80;;;;;;5018588;28;20037;-64
2023/09/26 09:40:38;;;;;;;10.43;7.53;;;18.90;70.60;;;;;;5004302;28;20068;-65
2023/09/26 09:43:04;;;;;;;8.15;6.47;;;18.90;70.60;;;;;;5018208;28;20105;-65
2023/09/26 09:45:34;;;;;;;6.50;5.35;;;18.90;70.50;;;;;;5023041;28;20045;-65
2023/09/26 09:48:03;;;;;;;7.32;5.82;;;18.80;70.00;;;;;;4998917;28;20032;-68
2023/09/26 09:50:32;;;;;;;8.00;6.82;;;18.90;70.00;;;;;;5022098;28;20111;-68
2023/09/26 09:53:01;;;;;;;9.98;7.32;;;18.90;70.10;;;;;;5018228;28;20121;-66
2023/09/26 09:55:38;;;;;;;9.32;7.13;;;18.90;70.60;;;;;;5019798;28;20121;-66
2023/09/26 09:58:08;;;;;;;9.65;7.22;;;18.90;70.80;;;;;;5017951;28;20441;-68
2023/09/26 10:00:36;;;;;;;9.20;6.35;;;18.90;71.50;;;;;;5018218;28;20124;-68
2023/09/26 10:03:04;;;;;;;6.72;5.78;;;18.90;70.80;;;;;;5017479;28;20519;-65
2023/09/26 10:05:30;;;;;;;7.30;6.57;;;18.90;70.40;;;;;;5016284;28;20141;-68
2023/09/26 10:07:58;;;;;;;6.35;5.75;;;18.90;70.30;;;;;;5019039;28;20507;-67
2023/09/26 10:10:24;;;;;;;10.57;8.02;;;18.90;70.00;;;;;;5014226;28;20034;-68
2023/09/26 10:12:51;;;;;;;9.43;6.57;;;18.90;70.00;;;;;;5018466;28;20053;-68
2023/09/26 10:15:17;;;;;;;7.00;6.38;;;18.90;70.50;;;;;;5019887;28;20030;-67
2023/09/26 10:17:46;;;;;;;10.27;6.60;;;18.90;70.00;;;;;;5021615;28;20036;-68
2023/09/26 10:20:14;;;;;;;7.78;6.97;;;18.90;69.80;;;;;;5019441;28;20032;-68
2023/09/26 10:22:41;;;;;;;8.43;6.18;;;18.90;70.00;;;;;;5028853;28;20038;-66
2023/09/26 10:25:19;;;;;;;10.40;7.70;;;18.90;69.70;;;;;;4998067;28;20061;-68
2023/09/26 10:27:47;;;;;;;9.30;6.28;;;19.00;70.20;;;;;;5020705;28;20056;-68
2023/09/26 10:30:18;;;;;;;8.23;6.43;;;19.00;70.20;;;;;;5000050;28;20083;-66
2023/09/26 10:32:45;;;;;;;7.55;6.00;;;19.00;70.00;;;;;;4999383;28;20025;-65
2023/09/26 10:35:14;;;;;;;9.27;6.00;;;19.00;70.00;;;;;;5016927;28;20526;-68
2023/09/26 10:37:48;;;;;;;8.43;6.25;;;19.00;69.90;;;;;;5016322;28;20041;-65
2023/09/26 10:40:14;;;;;;;8.63;7.20;;;19.00;70.10;;;;;;5012536;28;20030;-67
2023/09/26 10:42:46;;;;;;;8.70;6.32;;;19.00;70.30;;;;;;5004603;28;20097;-67
2023/09/26 10:45:13;;;;;;;7.32;6.22;;;19.00;70.50;;;;;;5019645;28;20030;-68
2023/09/26 10:47:40;;;;;;;8.68;6.22;;;19.00;70.40;;;;;;5018227;28;20049;-67
2023/09/26 10:50:08;;;;;;;7.80;6.38;;;19.00;70.30;;;;;;5004551;28;20029;-65
2023/09/26 10:52:34;;;;;;;12.50;7.55;;;19.00;70.40;;;;;;5020550;28;20052;-67
2023/09/26 10:55:01;;;;;;;8.30;5.65;;;19.00;70.30;;;;;;5019825;28;20150;-65
2023/09/26 10:57:26;;;;;;;6.53;5.88;;;19.00;69.90;;;;;;5019483;28;20042;-67
2023/09/26 10:59:54;;;;;;;11.80;8.77;;;19.00;70.00;;;;;;5016672;28;20029;-64
2023/09/26 11:02:21;;;;;;;9.93;7.28;;;19.00;70.70;;;;;;5014820;28;20033;-68
2023/09/26 11:04:47;;;;;;;10.52;5.97;;;19.00;70.40;;;;;;5015498;28;20028;-69
2023/09/26 11:07:15;;;;;;;7.10;5.93;;;19.00;70.20;;;;;;5001709;28;20033;-68
2023/09/26 11:09:42;;;;;;;6.85;5.00;;;19.00;70.20;;;;;;5010698;28;20033;-68
2023/09/26 11:12:08;;;;;;;7.60;6.60;;;19.00;69.80;;;;;;5019019;28;20396;-68
2023/09/26 11:14:34;;;;;;;8.02;6.03;;;19.00;69.90;;;;;;5020129;28;20091;-68
2023/09/26 11:17:00;;;;;;;9.38;6.30;;;19.10;70.10;;;;;;5018794;28;20075;-67
2023/09/26 11:19:29;;;;;;;7.60;5.90;;;19.00;70.20;;;;;;5018818;28;20025;-67
2023/09/26 11:21:55;;;;;;;6.95;6.00;;;19.10;70.40;;;;;;5019500;28;20036;-68
2023/09/26 11:24:31;;;;;;;8.20;5.85;;;19.10;70.10;;;;;;5020476;28;20031;-68
2023/09/26 11:27:08;;;;;;;10.77;7.57;;;19.10;70.10;;;;;;5015377;28;20041;-68
2023/09/26 11:29:35;;;;;;;8.20;7.40;;;19.10;70.10;;;;;;5015742;28;20033;-68
2023/09/26 11:32:05;;;;;;;9.30;8.18;;;19.10;71.10;;;;;;4996906;28;20033;-68
2023/09/26 11:34:33;;;;;;;9.85;7.15;;;19.10;70.60;;;;;;5017596;28;20708;-66
2023/09/26 11:36:59;;;;;;;10.35;7.50;;;19.10;71.10;;;;;;5014813;28;20025;-68
2023/09/26 11:39:24;;;;;;;7.15;6.38;;;19.10;71.10;;;;;;5019021;28;20034;-67
2023/09/26 11:42:05;;;;;;;8.93;7.50;;;19.10;71.00;;;;;;5019504;28;20025;-68
2023/09/26 11:44:31;;;;;;;9.75;7.20;;;19.10;70.60;;;;;;5019266;28;20073;-68
2023/09/26 11:46:58;;;;;;;7.00;5.78;;;19.10;70.60;;;;;;5020150;28;20033;-68
2023/09/26 11:49:24;;;;;;;8.63;7.28;;;19.10;70.40;;;;;;5020155;28;20401;-68
2023/09/26 11:51:51;;;;;;;7.38;6.35;;;19.20;70.90;;;;;;5022332;28;20053;-69
2023/09/26 11:54:17;;;;;;;12.52;7.75;;;19.20;71.10;;;;;;5020693;28;20046;-68
2023/09/26 11:56:47;;;;;;;7.07;6.25;;;19.20;71.10;;;;;;4998047;28;20049;-68
2023/09/26 11:59:12;;;;;;;10.80;8.57;;;19.20;70.70;;;;;;5014066;28;20054;-68
2023/09/26 12:01:41;;;;;;;8.38;6.63;;;19.20;70.70;;;;;;5016726;28;20112;-65
2023/09/26 12:04:09;;;;;;;10.27;7.68;;;19.20;70.90;;;;;;5014957;28;20036;-66
2023/09/26 12:06:35;;;;;;;11.15;9.27;;;19.20;70.60;;;;;;5012749;28;20132;-67
2023/09/26 12:09:03;;;;;;;12.07;9.30;;;19.30;71.10;;;;;;5018392;28;20116;-66
2023/09/26 12:11:29;;;;;;;9.20;7.18;;;19.20;71.80;;;;;;5015531;28;20131;-65
2023/09/26 12:13:54;;;;;;;9.80;8.27;;;19.20;70.90;;;;;;5017981;28;20032;-66
2023/09/26 12:16:20;;;;;;;15.45;10.00;;;19.30;71.30;;;;;;5017327;28;20022;-68
2023/09/26 12:18:45;;;;;;;11.27;8.50;;;19.30;71.80;;;;;;5014264;28;20030;-66
2023/09/26 12:21:11;;;;;;;14.80;10.10;;;19.30;71.90;;;;;;5014402;28;20491;-68
2023/09/26 12:23:37;;;;;;;10.43;6.55;;;19.30;71.80;;;;;;5014657;28;20247;-67
2023/09/26 12:26:02;;;;;;;13.13;8.98;;;19.30;71.40;;;;;;5014889;28;20048;-67
2023/09/26 12:28:28;;;;;;;13.82;10.50;;;19.30;71.70;;;;;;5011982;28;20034;-68
2023/09/26 12:30:54;;;;;;;11.85;9.68;;;19.30;72.20;;;;;;5014478;28;20456;-66
2023/09/26 12:33:20;;;;;;;17.50;11.30;;;19.30;72.20;;;;;;5020697;28;20034;-66
2023/09/26 12:35:46;;;;;;;12.20;9.02;;;19.30;72.50;;;;;;5016972;28;20165;-65
2023/09/26 12:38:11;;;;;;;12.60;7.68;;;19.30;72.20;;;;;;5012324;28;20152;-67
2023/09/26 12:40:37;;;;;;;11.55;6.95;;;19.30;72.10;;;;;;5016725;28;20122;-64
2023/09/26 12:43:03;;;;;;;10.73;8.02;;;19.30;71.40;;;;;;5019054;28;20589;-67